createdAt,value
2019-01-31T00:00:27.934Z,2.03
2019-01-31T00:01:28.110Z,2.21
2019-01-31T00:02:28.301Z,2.16
2019-01-31T00:03:28.483Z,2.20
2019-01-31T00:04:28.671Z,2.09
2019-01-31T00:05:28.854Z,2.07
2019-01-31T00:06:29.044Z,2.12
2019-01-31T00:07:29.211Z,2.14
2019-01-31T00:08:29.399Z,2.07
2019-01-31T00:09:29.583Z,2.09
2019-01-31T00:10:29.766Z,2.16
2019-01-31T00:11:29.952Z,2.20
2019-01-31T00:12:30.139Z,2.07
2019-01-31T00:13:30.326Z,2.09
2019-01-31T00:14:30.501Z,2.07
2019-01-31T00:15:30.679Z,2.16
2019-01-31T00:16:30.863Z,2.06
2019-01-31T00:17:31.043Z,2.17
2019-01-31T00:18:31.223Z,2.16
2019-01-31T00:19:31.825Z,2.10
2019-01-31T00:20:31.632Z,2.17
2019-01-31T00:21:31.823Z,2.14
2019-01-31T00:22:31.993Z,2.17
2019-01-31T00:23:32.188Z,2.07
2019-01-31T00:24:32.361Z,2.10
2019-01-31T00:25:32.543Z,2.06
2019-01-31T00:26:32.715Z,2.03
2019-01-31T00:27:32.905Z,2.05
2019-01-31T00:28:33.075Z,2.02
2019-01-31T00:29:33.274Z,1.95
2019-01-31T00:30:33.445Z,1.87
2019-01-31T00:31:33.642Z,1.91
2019-01-31T00:32:33.822Z,1.90
2019-01-31T00:33:33.997Z,1.98
2019-01-31T00:34:34.175Z,1.91
2019-01-31T00:35:34.352Z,1.90
2019-01-31T00:36:34.551Z,1.93
2019-01-31T00:37:34.724Z,1.93
2019-01-31T00:38:34.907Z,1.90
2019-01-31T00:39:35.090Z,1.88
2019-01-31T00:40:35.266Z,1.86
2019-01-31T00:41:35.445Z,1.93
2019-01-31T00:42:35.628Z,1.99
2019-01-31T00:43:35.804Z,2.02
2019-01-31T00:44:35.982Z,2.02
2019-01-31T00:45:36.164Z,2.07
2019-01-31T00:46:36.339Z,1.99
2019-01-31T00:47:36.526Z,2.05
2019-01-31T00:48:36.720Z,2.00
2019-01-31T00:49:36.891Z,1.90
2019-01-31T00:50:37.078Z,1.99
2019-01-31T00:51:37.254Z,1.90
2019-01-31T00:52:37.440Z,1.95
2019-01-31T00:53:37.619Z,1.91
2019-01-31T00:54:37.797Z,1.98
2019-01-31T00:55:37.979Z,1.93
2019-01-31T00:56:38.165Z,1.95
2019-01-31T00:57:38.339Z,1.98
2019-01-31T00:58:38.516Z,1.90
2019-01-31T00:59:38.697Z,1.91
2019-01-31T01:00:38.872Z,1.90
2019-01-31T01:01:39.064Z,1.88
2019-01-31T01:02:39.231Z,1.88
2019-01-31T01:03:39.400Z,1.95
2019-01-31T01:04:39.577Z,1.88
2019-01-31T01:05:39.759Z,2.00
2019-01-31T01:06:39.938Z,1.87
2019-01-31T01:07:40.113Z,1.83
2019-01-31T01:08:40.296Z,1.86
2019-01-31T01:09:40.473Z,1.84
2019-01-31T01:10:40.652Z,1.84
2019-01-31T01:11:40.830Z,1.80
2019-01-31T01:12:41.014Z,1.81
2019-01-31T01:13:41.201Z,1.86
2019-01-31T01:14:41.377Z,1.79
2019-01-31T01:15:41.555Z,1.81
2019-01-31T01:16:41.732Z,1.76
2019-01-31T01:17:41.910Z,1.77
2019-01-31T01:18:42.093Z,1.80
2019-01-31T01:19:42.273Z,1.77
2019-01-31T01:20:42.451Z,1.72
2019-01-31T01:21:42.632Z,1.79
2019-01-31T01:22:42.809Z,1.72
2019-01-31T01:23:42.992Z,1.72
2019-01-31T01:24:43.167Z,1.73
2019-01-31T01:25:43.348Z,1.69
2019-01-31T01:26:43.519Z,1.68
2019-01-31T01:27:43.696Z,1.80
2019-01-31T01:28:43.876Z,1.80
2019-01-31T01:29:44.052Z,1.72
2019-01-31T01:30:44.234Z,1.68
2019-01-31T01:31:44.412Z,1.70
2019-01-31T01:32:44.593Z,1.68
2019-01-31T01:33:44.771Z,1.68
2019-01-31T01:34:44.945Z,1.70
2019-01-31T01:35:45.122Z,1.68
2019-01-31T01:36:45.303Z,1.68
2019-01-31T01:37:45.475Z,1.70
2019-01-31T01:38:45.660Z,1.72
2019-01-31T01:39:45.837Z,1.59
2019-01-31T01:40:46.011Z,1.69
2019-01-31T01:41:46.188Z,1.62
2019-01-31T01:42:46.368Z,1.66
2019-01-31T01:43:46.576Z,1.69
2019-01-31T01:44:46.752Z,1.58
2019-01-31T01:45:46.936Z,1.60
2019-01-31T01:46:47.115Z,1.59
2019-01-31T01:47:47.293Z,1.63
2019-01-31T01:48:47.468Z,1.62
2019-01-31T01:49:47.648Z,1.65
2019-01-31T01:50:47.827Z,1.59
2019-01-31T01:51:48.093Z,1.59
2019-01-31T01:52:48.183Z,1.52
2019-01-31T01:53:48.366Z,1.55
2019-01-31T01:54:48.539Z,1.51
2019-01-31T01:55:48.720Z,1.55
2019-01-31T01:56:48.902Z,1.59
2019-01-31T01:57:49.090Z,1.58
2019-01-31T01:58:49.271Z,1.55
2019-01-31T01:59:49.459Z,1.50
2019-01-31T02:00:49.640Z,1.50
2019-01-31T02:01:49.816Z,1.44
2019-01-31T02:02:49.991Z,1.44
2019-01-31T02:03:50.177Z,1.40
2019-01-31T02:04:50.354Z,1.37
2019-01-31T02:05:50.529Z,1.33
2019-01-31T02:06:50.711Z,1.37
2019-01-31T02:07:50.895Z,1.32
2019-01-31T02:08:51.076Z,1.34
2019-01-31T02:09:51.251Z,1.47
2019-01-31T02:10:51.429Z,1.40
2019-01-31T02:11:51.607Z,1.42
2019-01-31T02:12:51.781Z,1.47
2019-01-31T02:13:51.965Z,1.54
2019-01-31T02:14:52.141Z,1.48
2019-01-31T02:15:52.321Z,1.50
2019-01-31T02:16:52.498Z,1.51
2019-01-31T02:17:52.678Z,1.51
2019-01-31T02:18:52.862Z,1.50
2019-01-31T02:19:53.047Z,1.45
2019-01-31T02:20:53.219Z,1.50
2019-01-31T02:21:53.394Z,1.58
2019-01-31T02:22:53.579Z,1.52
2019-01-31T02:23:53.755Z,1.59
2019-01-31T02:24:53.933Z,1.68
2019-01-31T02:25:54.112Z,1.66
2019-01-31T02:26:54.304Z,1.54
2019-01-31T02:27:54.476Z,1.55
2019-01-31T02:28:54.647Z,1.69
2019-01-31T02:29:54.828Z,1.69
2019-01-31T02:30:55.016Z,1.66
2019-01-31T02:31:55.196Z,1.59
2019-01-31T02:32:55.380Z,1.54
2019-01-31T02:33:55.564Z,1.54
2019-01-31T02:34:55.735Z,1.54
2019-01-31T02:35:55.912Z,1.50
2019-01-31T02:36:56.094Z,1.37
2019-01-31T02:37:56.270Z,1.50
2019-01-31T02:38:56.449Z,1.34
2019-01-31T02:39:56.634Z,1.29
2019-01-31T02:40:56.812Z,1.37
2019-01-31T02:41:56.989Z,1.22
2019-01-31T02:42:57.167Z,1.24
2019-01-31T02:43:57.339Z,1.08
2019-01-31T02:44:57.520Z,1.14
2019-01-31T02:45:57.698Z,1.16
2019-01-31T02:46:57.876Z,1.02
2019-01-31T02:47:58.055Z,1.02
2019-01-31T02:48:58.227Z,1.00
2019-01-31T02:49:58.409Z,0.93
2019-01-31T02:50:58.586Z,0.94
2019-01-31T02:51:58.773Z,0.91
2019-01-31T02:52:58.944Z,0.96
2019-01-31T02:53:59.124Z,0.76
2019-01-31T02:54:59.300Z,0.88
2019-01-31T02:55:59.473Z,0.88
2019-01-31T02:56:59.660Z,0.83
2019-01-31T02:57:59.841Z,0.86
2019-01-31T02:59:00.020Z,0.79
2019-01-31T03:00:00.343Z,0.76
2019-01-31T03:01:00.377Z,0.73
2019-01-31T03:02:00.558Z,0.65
2019-01-31T03:03:00.733Z,0.73
2019-01-31T03:04:00.914Z,0.70
2019-01-31T03:05:01.091Z,0.61
2019-01-31T03:06:01.291Z,0.55
2019-01-31T03:07:01.476Z,0.68
2019-01-31T03:08:01.651Z,0.61
2019-01-31T03:09:01.823Z,0.60
2019-01-31T03:10:02.005Z,0.58
2019-01-31T03:11:02.180Z,0.57
2019-01-31T03:12:02.353Z,0.41
2019-01-31T03:13:02.542Z,0.31
2019-01-31T03:14:10.159Z,0.39
2019-01-31T03:15:02.911Z,0.31
2019-01-31T03:16:03.079Z,0.32
2019-01-31T03:17:03.272Z,0.21
2019-01-31T03:18:03.435Z,0.23
2019-01-31T03:19:03.614Z,0.21
2019-01-31T03:20:03.790Z,0.18
2019-01-31T03:21:03.975Z,0.13
2019-01-31T03:22:04.152Z,0.18
2019-01-31T03:23:04.329Z,0.20
2019-01-31T03:24:04.505Z,0.18
2019-01-31T03:25:04.682Z,0.13
2019-01-31T03:26:04.865Z,0.11
2019-01-31T03:27:05.043Z,0.14
2019-01-31T03:28:05.222Z,0.20
2019-01-31T03:29:05.395Z,0.18
2019-01-31T03:30:05.578Z,0.15
2019-01-31T03:31:05.761Z,0.18
2019-01-31T03:32:05.931Z,0.04
2019-01-31T03:33:06.109Z,0.04
2019-01-31T03:34:06.290Z,0.07
2019-01-31T03:35:06.466Z,0.07
2019-01-31T03:36:06.643Z,0.11
2019-01-31T03:37:06.818Z,0.04
2019-01-31T03:38:07.006Z,0.03
2019-01-31T03:39:07.186Z,0.10
2019-01-31T03:40:07.629Z,0.11
2019-01-31T03:41:07.529Z,0.10
2019-01-31T03:42:07.708Z,0.03
2019-01-31T03:43:07.885Z,0.10
2019-01-31T03:44:08.064Z,-0.01
2019-01-31T03:45:08.240Z,0.07
2019-01-31T03:46:08.419Z,0.04
2019-01-31T03:47:08.602Z,-0.07
2019-01-31T03:48:08.779Z,-0.04
2019-01-31T03:49:08.961Z,-0.03
2019-01-31T03:50:09.202Z,0.02
2019-01-31T03:51:09.313Z,-0.04
2019-01-31T03:52:09.494Z,-0.05
2019-01-31T03:53:09.666Z,-0.11
2019-01-31T03:54:09.841Z,0.00
2019-01-31T03:55:10.017Z,-0.05
2019-01-31T03:56:10.196Z,0.03
2019-01-31T03:57:10.379Z,-0.10
2019-01-31T03:58:10.559Z,-0.19
2019-01-31T03:59:10.729Z,-0.21
2019-01-31T04:00:10.901Z,-0.19
2019-01-31T04:01:11.082Z,-0.28
2019-01-31T04:02:11.259Z,-0.22
2019-01-31T04:03:11.438Z,-0.25
2019-01-31T04:04:11.619Z,-0.21
2019-01-31T04:05:11.792Z,-0.19
2019-01-31T04:06:11.967Z,-0.29
2019-01-31T04:07:12.266Z,-0.21
2019-01-31T04:08:12.331Z,-0.19
2019-01-31T04:09:12.507Z,-0.15
2019-01-31T04:10:19.080Z,-0.25
2019-01-31T04:11:12.853Z,-0.18
2019-01-31T04:12:13.031Z,-0.23
2019-01-31T04:13:13.206Z,-0.21
2019-01-31T04:14:13.386Z,-0.23
2019-01-31T04:15:13.562Z,-0.15
2019-01-31T04:16:13.747Z,-0.19
2019-01-31T04:17:13.920Z,-0.28
2019-01-31T04:18:14.102Z,-0.28
2019-01-31T04:19:14.279Z,-0.33
2019-01-31T04:20:14.453Z,-0.29
2019-01-31T04:21:14.636Z,-0.31
2019-01-31T04:22:14.801Z,-0.29
2019-01-31T04:23:14.985Z,-0.26
2019-01-31T04:24:15.161Z,-0.33
2019-01-31T04:25:15.334Z,-0.34
2019-01-31T04:26:15.520Z,-0.40
2019-01-31T04:27:15.698Z,-0.36
2019-01-31T04:28:15.898Z,-0.43
2019-01-31T04:29:16.062Z,-0.44
2019-01-31T04:30:16.240Z,-0.42
2019-01-31T04:31:16.427Z,-0.36
2019-01-31T04:32:16.590Z,-0.39
2019-01-31T04:33:16.766Z,-0.37
2019-01-31T04:34:16.949Z,-0.46
2019-01-31T04:35:17.128Z,-0.44
2019-01-31T04:36:17.309Z,-0.54
2019-01-31T04:37:17.499Z,-0.46
2019-01-31T04:38:19.755Z,-0.49
2019-01-31T04:39:17.852Z,-0.46
2019-01-31T04:40:18.033Z,-0.55
2019-01-31T04:41:18.228Z,-0.61
2019-01-31T04:42:18.386Z,-0.51
2019-01-31T04:43:18.573Z,-0.51
2019-01-31T04:44:18.733Z,-0.57
2019-01-31T04:45:18.914Z,-0.60
2019-01-31T04:46:19.092Z,-0.54
2019-01-31T04:47:19.268Z,-0.54
2019-01-31T04:48:19.452Z,-0.52
2019-01-31T04:49:19.632Z,-0.47
2019-01-31T04:50:19.806Z,-0.49
2019-01-31T04:51:19.990Z,-0.57
2019-01-31T04:52:20.158Z,-0.51
2019-01-31T04:53:20.355Z,-0.47
2019-01-31T04:54:20.538Z,-0.44
2019-01-31T04:55:20.711Z,-0.54
2019-01-31T04:56:20.890Z,-0.47
2019-01-31T04:57:21.071Z,-0.40
2019-01-31T04:58:21.253Z,-0.46
2019-01-31T04:59:21.426Z,-0.37
2019-01-31T05:00:21.601Z,-0.47
2019-01-31T05:01:21.776Z,-0.43
2019-01-31T05:02:21.949Z,-0.37
2019-01-31T05:03:22.131Z,-0.40
2019-01-31T05:04:22.316Z,-0.40
2019-01-31T05:05:22.490Z,-0.43
2019-01-31T05:06:22.665Z,-0.40
2019-01-31T05:07:22.843Z,-0.44
2019-01-31T05:08:23.022Z,-0.47
2019-01-31T05:09:23.197Z,-0.49
2019-01-31T05:10:23.378Z,-0.51
2019-01-31T05:11:23.580Z,-0.47
2019-01-31T05:12:23.738Z,-0.55
2019-01-31T05:13:23.917Z,-0.52
2019-01-31T05:14:24.108Z,-0.57
2019-01-31T05:15:24.288Z,-0.54
2019-01-31T05:16:24.482Z,-0.55
2019-01-31T05:17:24.649Z,-0.60
2019-01-31T05:18:24.834Z,-0.62
2019-01-31T05:19:25.017Z,-0.65
2019-01-31T05:20:25.186Z,-0.60
2019-01-31T05:21:25.365Z,-0.69
2019-01-31T05:22:25.543Z,-0.67
2019-01-31T05:23:25.729Z,-0.62
2019-01-31T05:24:25.906Z,-0.61
2019-01-31T05:25:26.085Z,-0.67
2019-01-31T05:26:26.264Z,-0.61
2019-01-31T05:27:26.439Z,-0.64
2019-01-31T05:28:26.622Z,-0.69
2019-01-31T05:29:26.798Z,-0.61
2019-01-31T05:30:26.981Z,-0.70
2019-01-31T05:31:27.149Z,-0.79
2019-01-31T05:32:27.330Z,-0.76
2019-01-31T05:33:27.507Z,-0.72
2019-01-31T05:34:27.680Z,-0.67
2019-01-31T05:35:27.860Z,-0.85
2019-01-31T05:36:28.039Z,-0.70
2019-01-31T05:37:28.213Z,-0.72
2019-01-31T05:38:28.386Z,-0.85
2019-01-31T05:39:28.565Z,-0.82
2019-01-31T05:40:28.743Z,-0.75
2019-01-31T05:41:28.917Z,-0.83
2019-01-31T05:42:29.088Z,-0.79
2019-01-31T05:43:29.268Z,-0.85
2019-01-31T05:44:29.444Z,-0.86
2019-01-31T05:45:29.624Z,-0.83
2019-01-31T05:46:29.809Z,-0.72
2019-01-31T05:47:29.980Z,-0.76
2019-01-31T05:48:30.163Z,-0.69
2019-01-31T05:49:30.348Z,-0.83
2019-01-31T05:50:30.513Z,-0.70
2019-01-31T05:51:30.691Z,-0.76
2019-01-31T05:52:30.864Z,-0.79
2019-01-31T05:53:31.045Z,-0.70
2019-01-31T05:54:31.230Z,-0.70
2019-01-31T05:55:31.405Z,-0.70
2019-01-31T05:56:31.590Z,-0.70
2019-01-31T05:57:31.772Z,-0.65
2019-01-31T05:58:31.950Z,-0.72
2019-01-31T05:59:32.126Z,-0.75
2019-01-31T06:00:32.301Z,-0.69
2019-01-31T06:01:32.481Z,-0.72
2019-01-31T06:02:32.653Z,-0.72
2019-01-31T06:03:32.836Z,-0.65
2019-01-31T06:04:33.012Z,-0.62
2019-01-31T06:05:33.187Z,-0.64
2019-01-31T06:06:33.375Z,-0.61
2019-01-31T06:07:33.548Z,-0.60
2019-01-31T06:08:33.722Z,-0.58
2019-01-31T06:09:33.909Z,-0.62
2019-01-31T06:10:34.089Z,-0.60
2019-01-31T06:11:34.270Z,-0.62
2019-01-31T06:12:34.449Z,-0.57
2019-01-31T06:13:34.687Z,-0.55
2019-01-31T06:14:34.804Z,-0.58
2019-01-31T06:15:34.976Z,-0.55
2019-01-31T06:16:35.160Z,-0.62
2019-01-31T06:17:35.335Z,-0.52
2019-01-31T06:18:35.517Z,-0.54
2019-01-31T06:19:35.705Z,-0.61
2019-01-31T06:20:35.881Z,-0.58
2019-01-31T06:21:36.057Z,-0.61
2019-01-31T06:22:36.237Z,-0.65
2019-01-31T06:23:36.416Z,-0.73
2019-01-31T06:24:36.606Z,-0.83
2019-01-31T06:25:36.782Z,-0.82
2019-01-31T06:26:36.956Z,-0.83
2019-01-31T06:27:37.135Z,-0.85
2019-01-31T06:28:37.311Z,-0.75
2019-01-31T06:29:37.484Z,-0.79
2019-01-31T06:30:37.668Z,-0.89
2019-01-31T06:31:37.845Z,-0.89
2019-01-31T06:32:38.033Z,-0.82
2019-01-31T06:33:38.199Z,-0.82
2019-01-31T06:34:38.379Z,-0.82
2019-01-31T06:35:38.558Z,-0.79
2019-01-31T06:36:38.738Z,-0.91
2019-01-31T06:37:38.917Z,-0.97
2019-01-31T06:38:39.092Z,-1.17
2019-01-31T06:39:39.268Z,-1.20
2019-01-31T06:40:39.453Z,-1.10
2019-01-31T06:41:39.622Z,-1.23
2019-01-31T06:42:39.805Z,-1.38
2019-01-31T06:43:39.996Z,-1.54
2019-01-31T06:44:40.174Z,-1.54
2019-01-31T06:45:40.357Z,-1.52
2019-01-31T06:46:40.527Z,-1.58
2019-01-31T06:47:40.714Z,-1.51
2019-01-31T06:48:40.897Z,-1.52
2019-01-31T06:49:41.075Z,-1.54
2019-01-31T06:50:41.255Z,-1.54
2019-01-31T06:51:41.435Z,-1.66
2019-01-31T06:52:41.608Z,-1.62
2019-01-31T06:53:41.784Z,-1.49
2019-01-31T06:54:41.964Z,-1.62
2019-01-31T06:55:42.139Z,-1.59
2019-01-31T06:56:42.318Z,-1.58
2019-01-31T06:57:42.497Z,-1.64
2019-01-31T06:58:42.676Z,-1.56
2019-01-31T06:59:42.855Z,-1.66
2019-01-31T07:00:43.063Z,-1.51
2019-01-31T07:01:43.208Z,-1.59
2019-01-31T07:02:43.387Z,-1.66
2019-01-31T07:03:43.562Z,-1.61
2019-01-31T07:04:43.741Z,-1.48
2019-01-31T07:05:43.916Z,-1.59
2019-01-31T07:06:44.091Z,-1.56
2019-01-31T07:07:44.273Z,-1.49
2019-01-31T07:08:44.446Z,-1.52
2019-01-31T07:09:44.624Z,-1.46
2019-01-31T07:10:44.804Z,-1.43
2019-01-31T07:11:45.012Z,-1.52
2019-01-31T07:12:45.159Z,-1.37
2019-01-31T07:13:45.337Z,-1.35
2019-01-31T07:14:45.519Z,-1.23
2019-01-31T07:15:45.698Z,-1.16
2019-01-31T07:16:45.883Z,-1.07
2019-01-31T07:17:46.052Z,-0.91
2019-01-31T07:18:46.232Z,-0.85
2019-01-31T07:19:46.412Z,-0.70
2019-01-31T07:20:46.594Z,-0.60
2019-01-31T07:21:46.770Z,-0.43
2019-01-31T07:22:46.946Z,-0.33
2019-01-31T07:23:47.126Z,-0.26
2019-01-31T07:24:47.308Z,0.11
2019-01-31T07:25:47.487Z,0.23
2019-01-31T07:26:47.655Z,0.62
2019-01-31T07:27:47.857Z,0.55
2019-01-31T07:28:48.035Z,0.55
2019-01-31T07:29:48.221Z,0.90
2019-01-31T07:30:48.400Z,1.48
2019-01-31T07:31:48.594Z,1.40
2019-01-31T07:32:48.775Z,1.69
2019-01-31T07:33:48.959Z,2.10
2019-01-31T07:34:49.136Z,2.71
2019-01-31T07:35:52.084Z,2.63
2019-01-31T07:36:49.503Z,2.93
2019-01-31T07:37:49.685Z,3.40
2019-01-31T07:38:49.866Z,4.09
2019-01-31T07:39:50.051Z,3.96
2019-01-31T07:40:50.233Z,4.20
2019-01-31T07:41:50.418Z,4.40
2019-01-31T07:42:50.676Z,4.59
2019-01-31T07:43:50.795Z,5.20
2019-01-31T07:44:50.985Z,5.79
2019-01-31T07:45:51.178Z,6.36
2019-01-31T07:46:51.368Z,6.69
2019-01-31T07:47:51.547Z,7.02
2019-01-31T07:48:51.734Z,7.55
2019-01-31T07:49:51.923Z,7.67
2019-01-31T07:50:52.117Z,7.05
2019-01-31T07:51:52.302Z,7.28
2019-01-31T07:52:52.490Z,7.05
2019-01-31T07:53:52.676Z,6.69
2019-01-31T07:54:52.875Z,6.99
2019-01-31T07:55:53.056Z,7.31
2019-01-31T07:56:53.252Z,7.55
2019-01-31T07:57:53.451Z,8.19
2019-01-31T07:58:53.638Z,8.29
2019-01-31T07:59:53.827Z,8.65
2019-01-31T08:00:54.017Z,8.71
2019-01-31T08:01:54.210Z,8.62
2019-01-31T08:02:54.402Z,8.15
2019-01-31T08:04:02.159Z,8.19
2019-01-31T08:04:54.784Z,8.00
2019-01-31T08:05:54.974Z,7.30
2019-01-31T08:06:55.168Z,6.98
2019-01-31T08:07:55.357Z,7.49
2019-01-31T08:08:55.553Z,8.22
2019-01-31T08:09:56.139Z,8.02
2019-01-31T08:10:55.940Z,7.77
2019-01-31T08:11:56.135Z,8.12
2019-01-31T08:12:56.329Z,7.83
2019-01-31T08:13:56.523Z,8.47
2019-01-31T08:14:56.723Z,9.14
2019-01-31T08:15:56.914Z,9.43
2019-01-31T08:16:57.115Z,8.79
2019-01-31T08:17:57.307Z,8.37
2019-01-31T08:18:57.498Z,8.20
2019-01-31T08:19:57.693Z,9.08
2019-01-31T08:20:57.883Z,8.73
2019-01-31T08:21:58.080Z,7.20
2019-01-31T08:23:00.066Z,7.21
2019-01-31T08:23:58.473Z,5.63
2019-01-31T08:24:58.667Z,6.48
2019-01-31T08:25:58.861Z,7.52
2019-01-31T08:26:59.062Z,8.81
2019-01-31T08:27:59.260Z,9.68
2019-01-31T08:28:59.456Z,10.44
2019-01-31T08:29:59.638Z,10.56
2019-01-31T08:30:59.856Z,9.18
2019-01-31T08:32:00.058Z,9.46
2019-01-31T08:33:00.252Z,8.73
2019-01-31T08:34:00.447Z,6.66
2019-01-31T08:35:00.640Z,6.66
2019-01-31T08:36:00.841Z,6.81
2019-01-31T08:37:01.039Z,6.33
2019-01-31T08:38:01.242Z,6.14
2019-01-31T08:39:01.438Z,5.38
2019-01-31T08:40:01.644Z,5.85
2019-01-31T08:41:01.827Z,6.19
2019-01-31T08:42:03.958Z,5.58
2019-01-31T08:43:02.231Z,5.10
2019-01-31T08:44:02.423Z,5.42
2019-01-31T08:45:02.620Z,5.86
2019-01-31T08:46:02.828Z,5.94
2019-01-31T08:47:03.021Z,5.06
2019-01-31T08:48:03.213Z,5.48
2019-01-31T08:49:03.412Z,5.85
2019-01-31T08:50:03.614Z,7.07
2019-01-31T08:51:03.819Z,8.36
2019-01-31T08:52:04.012Z,6.95
2019-01-31T08:53:04.227Z,7.09
2019-01-31T08:54:04.424Z,6.81
2019-01-31T08:55:04.623Z,6.85
2019-01-31T08:56:04.818Z,7.89
2019-01-31T08:57:05.020Z,7.82
2019-01-31T08:58:05.208Z,7.69
2019-01-31T08:59:05.408Z,8.28
2019-01-31T09:00:05.594Z,8.81
2019-01-31T09:01:05.804Z,9.35
2019-01-31T09:02:05.999Z,8.01
2019-01-31T09:03:06.206Z,8.18
2019-01-31T09:04:06.415Z,8.02
2019-01-31T09:05:06.600Z,9.39
2019-01-31T09:06:06.798Z,10.32
2019-01-31T09:07:07.000Z,10.81
2019-01-31T09:08:07.206Z,11.42
2019-01-31T09:09:07.403Z,12.20
2019-01-31T09:10:07.604Z,12.45
2019-01-31T09:11:07.814Z,12.23
2019-01-31T09:12:15.106Z,12.41
2019-01-31T09:13:08.221Z,12.27
2019-01-31T09:14:08.417Z,12.14
2019-01-31T09:15:08.628Z,11.51
2019-01-31T09:16:08.824Z,11.22
2019-01-31T09:17:09.031Z,10.68
2019-01-31T09:18:09.230Z,11.61
2019-01-31T09:19:09.429Z,12.13
2019-01-31T09:20:09.628Z,10.18
2019-01-31T09:21:09.837Z,8.58
2019-01-31T09:22:10.037Z,9.40
2019-01-31T09:23:10.236Z,8.77
2019-01-31T09:24:10.431Z,8.12
2019-01-31T09:25:10.659Z,8.98
2019-01-31T09:26:10.843Z,10.02
2019-01-31T09:27:11.037Z,10.74
2019-01-31T09:28:11.249Z,11.02
2019-01-31T09:29:11.446Z,11.15
2019-01-31T09:30:11.649Z,10.96
2019-01-31T09:31:11.843Z,9.42
2019-01-31T09:32:12.046Z,9.58
2019-01-31T09:33:12.248Z,10.22
2019-01-31T09:34:12.459Z,10.36
2019-01-31T09:35:12.643Z,10.70
2019-01-31T09:36:12.843Z,11.27
2019-01-31T09:37:13.053Z,11.36
2019-01-31T09:38:13.251Z,11.82
2019-01-31T09:39:13.454Z,11.60
2019-01-31T09:40:13.652Z,11.47
2019-01-31T09:41:13.853Z,10.42
2019-01-31T09:42:14.048Z,10.40
2019-01-31T09:43:14.242Z,10.44
2019-01-31T09:44:14.442Z,10.51
2019-01-31T09:45:14.640Z,10.20
2019-01-31T09:46:14.951Z,9.91
2019-01-31T09:47:15.047Z,10.60
2019-01-31T09:48:15.242Z,9.84
2019-01-31T09:49:15.444Z,10.66
2019-01-31T09:50:15.637Z,11.10
2019-01-31T09:51:15.850Z,10.60
2019-01-31T09:52:16.048Z,9.81
2019-01-31T09:53:16.243Z,10.05
2019-01-31T09:54:16.451Z,9.96
2019-01-31T09:55:16.653Z,10.17
2019-01-31T09:56:16.852Z,10.14
2019-01-31T09:57:17.052Z,10.99
2019-01-31T09:58:17.265Z,11.22
2019-01-31T09:59:17.461Z,11.22
2019-01-31T10:00:27.105Z,11.10
2019-01-31T10:01:17.856Z,11.42
2019-01-31T10:02:18.057Z,11.14
2019-01-31T10:03:18.265Z,9.33
2019-01-31T10:04:18.470Z,9.58
2019-01-31T10:05:18.666Z,8.89
2019-01-31T10:06:18.866Z,7.87
2019-01-31T10:07:19.058Z,7.03
2019-01-31T10:08:19.252Z,6.69
2019-01-31T10:09:19.455Z,6.04
2019-01-31T10:10:19.659Z,5.78
2019-01-31T10:11:19.847Z,5.64
2019-01-31T10:12:20.041Z,5.63
2019-01-31T10:13:20.279Z,5.53
2019-01-31T10:14:20.445Z,5.49
2019-01-31T10:15:20.700Z,5.65
2019-01-31T10:16:20.826Z,5.42
2019-01-31T10:17:21.045Z,5.00
2019-01-31T10:18:21.246Z,5.15
2019-01-31T10:19:23.254Z,4.72
2019-01-31T10:20:21.609Z,4.84
2019-01-31T10:21:21.815Z,5.28
2019-01-31T10:22:21.989Z,5.56
2019-01-31T10:23:22.181Z,5.20
2019-01-31T10:24:22.394Z,5.28
2019-01-31T10:25:22.576Z,5.28
2019-01-31T10:26:22.754Z,5.24
2019-01-31T10:27:22.938Z,5.22
2019-01-31T10:28:23.137Z,5.24
2019-01-31T10:29:23.321Z,5.39
2019-01-31T10:30:23.510Z,5.42
2019-01-31T10:31:23.702Z,5.57
2019-01-31T10:32:23.893Z,5.31
2019-01-31T10:33:24.083Z,5.10
2019-01-31T10:34:24.267Z,5.10
2019-01-31T10:35:24.466Z,5.13
2019-01-31T10:36:24.648Z,4.99
2019-01-31T10:37:24.836Z,4.97
2019-01-31T10:38:25.028Z,4.78
2019-01-31T10:39:25.230Z,4.80
2019-01-31T10:40:25.416Z,4.77
2019-01-31T10:41:25.629Z,4.92
2019-01-31T10:42:25.787Z,4.69
2019-01-31T10:43:25.977Z,4.47
2019-01-31T10:44:26.159Z,4.47
2019-01-31T10:45:26.351Z,4.36
2019-01-31T10:46:26.539Z,4.33
2019-01-31T10:47:26.729Z,4.72
2019-01-31T10:48:26.908Z,4.24
2019-01-31T10:49:27.094Z,4.22
2019-01-31T10:50:27.279Z,4.22
2019-01-31T10:51:27.465Z,4.18
2019-01-31T10:52:27.645Z,4.45
2019-01-31T10:53:27.842Z,4.54
2019-01-31T10:54:28.041Z,4.44
2019-01-31T10:55:28.216Z,4.50
2019-01-31T10:56:28.399Z,4.18
2019-01-31T10:57:28.585Z,4.16
2019-01-31T10:58:28.771Z,3.96
2019-01-31T10:59:28.958Z,4.20
2019-01-31T11:00:29.148Z,4.36
2019-01-31T11:01:29.336Z,4.50
2019-01-31T11:02:29.515Z,4.59
2019-01-31T11:03:29.706Z,4.91
2019-01-31T11:04:29.882Z,5.18
2019-01-31T11:05:30.070Z,5.06
2019-01-31T11:06:30.255Z,5.06
2019-01-31T11:07:30.445Z,5.22
2019-01-31T11:08:30.683Z,5.45
2019-01-31T11:09:30.833Z,5.64
2019-01-31T11:10:31.001Z,5.65
2019-01-31T11:11:31.184Z,5.60
2019-01-31T11:12:31.366Z,5.74
2019-01-31T11:13:31.565Z,5.53
2019-01-31T11:14:31.752Z,5.57
2019-01-31T11:15:31.939Z,5.76
2019-01-31T11:16:32.126Z,5.93
2019-01-31T11:17:32.324Z,5.79
2019-01-31T11:18:32.519Z,5.81
2019-01-31T11:19:32.703Z,5.81
2019-01-31T11:20:32.885Z,5.96
2019-01-31T11:21:33.070Z,5.99
2019-01-31T11:22:33.347Z,5.93
2019-01-31T11:23:33.446Z,5.86
2019-01-31T11:24:33.634Z,5.90
2019-01-31T11:25:33.820Z,6.18
2019-01-31T11:26:34.004Z,6.27
2019-01-31T11:27:34.189Z,6.48
2019-01-31T11:28:34.373Z,6.38
2019-01-31T11:29:34.570Z,6.49
2019-01-31T11:30:34.759Z,6.44
2019-01-31T11:31:34.958Z,6.27
2019-01-31T11:32:35.130Z,6.51
2019-01-31T11:33:35.318Z,6.66
2019-01-31T11:34:35.508Z,6.80
2019-01-31T11:35:35.701Z,6.71
2019-01-31T11:36:35.884Z,6.92
2019-01-31T11:37:36.074Z,7.12
2019-01-31T11:38:36.259Z,7.31
2019-01-31T11:39:36.441Z,7.86
2019-01-31T11:40:36.628Z,8.53
2019-01-31T11:41:36.821Z,9.40
2019-01-31T11:42:37.010Z,10.01
2019-01-31T11:43:37.192Z,11.07
2019-01-31T11:44:38.060Z,10.38
2019-01-31T11:45:37.574Z,11.06
2019-01-31T11:46:37.767Z,11.40
2019-01-31T11:47:37.968Z,11.39
2019-01-31T11:48:38.147Z,11.51
2019-01-31T11:49:38.339Z,12.07
2019-01-31T11:50:38.540Z,11.76
2019-01-31T11:51:38.724Z,11.24
2019-01-31T11:52:38.917Z,10.88
2019-01-31T11:53:39.104Z,10.34
2019-01-31T11:54:39.301Z,10.23
2019-01-31T11:55:39.489Z,10.30
2019-01-31T11:56:39.684Z,10.27
2019-01-31T11:57:39.875Z,9.35
2019-01-31T11:58:40.061Z,8.43
2019-01-31T11:59:40.260Z,8.50
2019-01-31T12:00:40.471Z,8.43
2019-01-31T12:01:40.654Z,8.47
2019-01-31T12:02:40.846Z,8.02
2019-01-31T12:03:41.036Z,8.16
2019-01-31T12:04:41.221Z,7.80
2019-01-31T12:05:41.412Z,7.89
2019-01-31T12:06:41.603Z,8.15
2019-01-31T12:07:41.796Z,8.74
2019-01-31T12:08:41.985Z,8.73
2019-01-31T12:09:42.176Z,8.96
2019-01-31T12:10:42.359Z,8.84
2019-01-31T12:11:42.548Z,8.99
2019-01-31T12:12:43.872Z,9.04
2019-01-31T12:13:42.933Z,9.23
2019-01-31T12:14:43.114Z,8.91
2019-01-31T12:15:43.320Z,8.71
2019-01-31T12:16:43.508Z,8.66
2019-01-31T12:17:43.702Z,8.74
2019-01-31T12:18:43.894Z,8.52
2019-01-31T12:19:44.085Z,7.86
2019-01-31T12:20:44.266Z,7.27
2019-01-31T12:21:44.460Z,6.70
2019-01-31T12:22:44.654Z,6.27
2019-01-31T12:23:44.850Z,5.65
2019-01-31T12:24:45.040Z,5.33
2019-01-31T12:25:45.232Z,5.10
2019-01-31T12:26:45.437Z,4.88
2019-01-31T12:27:45.608Z,4.85
2019-01-31T12:28:45.798Z,4.66
2019-01-31T12:29:45.978Z,4.65
2019-01-31T12:30:46.167Z,4.45
2019-01-31T12:31:46.354Z,4.36
2019-01-31T12:32:46.548Z,4.45
2019-01-31T12:33:46.735Z,4.44
2019-01-31T12:34:46.915Z,4.36
2019-01-31T12:35:47.100Z,4.29
2019-01-31T12:36:47.300Z,4.27
2019-01-31T12:37:47.482Z,4.14
2019-01-31T12:38:47.667Z,4.08
2019-01-31T12:39:47.854Z,4.11
2019-01-31T12:40:48.037Z,4.02
2019-01-31T12:41:48.229Z,4.08
2019-01-31T12:42:48.419Z,4.06
2019-01-31T12:43:48.603Z,4.06
2019-01-31T12:44:48.787Z,4.02
2019-01-31T12:45:48.967Z,4.05
2019-01-31T12:46:49.152Z,4.14
2019-01-31T12:47:49.333Z,4.32
2019-01-31T12:48:49.522Z,4.36
2019-01-31T12:49:49.703Z,4.36
2019-01-31T12:50:49.886Z,4.41
2019-01-31T12:51:50.067Z,4.50
2019-01-31T12:52:50.264Z,4.52
2019-01-31T12:53:50.444Z,4.58
2019-01-31T12:54:50.633Z,4.54
2019-01-31T12:55:50.811Z,4.50
2019-01-31T12:56:50.989Z,4.62
2019-01-31T12:57:51.178Z,4.52
2019-01-31T12:58:51.359Z,4.66
2019-01-31T12:59:51.546Z,4.59
2019-01-31T13:00:51.727Z,4.58
2019-01-31T13:01:51.912Z,4.30
2019-01-31T13:02:52.092Z,4.42
2019-01-31T13:03:52.273Z,4.27
2019-01-31T13:04:52.460Z,4.34
2019-01-31T13:05:52.754Z,4.18
2019-01-31T13:06:52.817Z,4.15
2019-01-31T13:07:53.003Z,4.18
2019-01-31T13:08:53.189Z,4.14
2019-01-31T13:09:53.378Z,4.23
2019-01-31T13:10:53.565Z,4.11
2019-01-31T13:11:53.758Z,4.05